Time;durP1;ratioP1;P1;durP2;ratioP2;P2;SDS_P1;SDS_P2;PMS_P1;PMS_P2;Temp;Humidity;BMP_temperature;BMP_pressure;BME280_temperature;BME280_humidity;BME280_pressure;Samples;Min_cycle;Max_cycle;Signal;HPM_P1;HPM_P2
2023/04/03 00:01:19;;;;;;;6.57;2.75;;;;;;;8.23;56.20;102898.19;5120493;28;20047;-60
2023/04/03 00:03:47;;;;;;;4.85;2.63;;;;;;;8.21;56.03;102898.34;5117237;28;20051;-61
2023/04/03 00:06:15;;;;;;;6.03;2.70;;;;;;;8.19;56.34;102896.84;5117101;28;20051;-61
2023/04/03 00:08:44;;;;;;;5.10;2.67;;;;;;;8.19;56.38;102897.66;5112423;28;20115;-61
2023/04/03 00:11:12;;;;;;;4.15;2.17;;;;;;;8.17;56.28;102894.31;5116258;28;20052;-60
2023/04/03 00:13:40;;;;;;;5.20;2.67;;;;;;;8.18;56.23;102898.66;5117077;28;20082;-60
2023/04/03 00:16:09;;;;;;;5.03;2.50;;;;;;;8.18;56.16;102906.69;5116502;28;20058;-61
2023/04/03 00:18:38;;;;;;;5.40;2.60;;;;;;;8.11;56.70;102893.09;5113679;28;20524;-61
2023/04/03 00:21:06;;;;;;;5.38;2.70;;;;;;;8.16;56.39;102898.81;5117334;28;20040;-60
2023/04/03 00:23:34;;;;;;;5.00;2.55;;;;;;;8.15;56.27;102904.34;5119647;28;20210;-60
2023/04/03 00:26:04;;;;;;;4.13;2.33;;;;;;;8.13;56.93;102901.81;5117711;28;20392;-60
2023/04/03 00:28:31;;;;;;;4.70;2.80;;;;;;;8.11;56.36;102909.16;5121844;28;20048;-60
2023/04/03 00:30:59;;;;;;;5.20;2.92;;;;;;;8.12;56.42;102912.69;5119778;28;20108;-60
2023/04/03 00:33:27;;;;;;;8.60;2.47;;;;;;;8.11;56.88;102911.00;5122532;28;20051;-61
2023/04/03 00:35:55;;;;;;;4.35;2.85;;;;;;;8.10;56.52;102912.00;5115346;28;20059;-61
2023/04/03 00:38:23;;;;;;;6.53;3.10;;;;;;;8.08;56.55;102904.13;5122225;28;20054;-60
2023/04/03 00:40:51;;;;;;;6.88;3.15;;;;;;;8.06;56.28;102903.44;5110565;28;20048;-61
2023/04/03 00:43:22;;;;;;;7.03;2.75;;;;;;;8.07;55.94;102906.94;5123483;28;20047;-60
2023/04/03 00:45:51;;;;;;;8.80;2.90;;;;;;;8.06;56.40;102919.50;5120163;28;20101;-61
2023/04/03 00:48:22;;;;;;;7.25;2.88;;;;;;;8.04;56.53;102921.50;5123692;28;20047;-60
2023/04/03 00:50:51;;;;;;;6.88;2.92;;;;;;;8.02;57.14;102911.94;5123458;28;20481;-61
2023/04/03 00:53:23;;;;;;;5.85;2.90;;;;;;;8.00;56.43;102911.25;5115352;28;20580;-60
2023/04/03 00:55:51;;;;;;;6.80;2.58;;;;;;;8.00;55.87;102911.25;5122074;28;20638;-60
2023/04/03 00:58:26;;;;;;;4.35;2.63;;;;;;;7.97;56.15;102917.75;5113546;28;20062;-60
2023/04/03 01:00:58;;;;;;;6.40;2.85;;;;;;;7.96;56.28;102916.06;5123479;28;20119;-61
2023/04/03 01:03:26;;;;;;;6.03;2.63;;;;;;;7.95;56.53;102924.25;5117661;28;20064;-60
2023/04/03 01:05:54;;;;;;;4.65;2.15;;;;;;;7.94;55.73;102918.03;5122659;28;20035;-61
2023/04/03 01:08:22;;;;;;;5.53;2.33;;;;;;;7.92;56.27;102922.72;5114714;28;20047;-60
2023/04/03 01:10:50;;;;;;;8.73;3.05;;;;;;;7.90;55.99;102918.50;5123387;28;20307;-61
2023/04/03 01:13:23;;;;;;;6.72;3.28;;;;;;;7.90;56.18;102923.88;5115994;28;20056;-60
2023/04/03 01:15:51;;;;;;;5.80;2.60;;;;;;;7.88;55.80;102917.81;5121398;28;20043;-61
2023/04/03 01:18:18;;;;;;;5.68;2.78;;;;;;;7.88;56.14;102926.69;5121893;28;20054;-61
2023/04/03 01:21:15;;;;;;;5.68;2.83;;;;;;;7.87;56.73;102916.97;5121796;28;20444;-60
2023/04/03 01:24:00;;;;;;;6.03;3.20;;;;;;;7.88;56.46;102928.53;5083380;28;20074;-60
2023/04/03 01:26:29;;;;;;;6.07;2.80;;;;;;;7.84;56.13;102934.19;5118599;28;20061;-61
2023/04/03 01:29:00;;;;;;;5.47;3.55;;;;;;;7.83;55.81;102923.63;5112418;28;20465;-60
2023/04/03 01:31:32;;;;;;;4.63;2.38;;;;;;;7.82;56.67;102930.81;5121304;28;20044;-60
2023/04/03 01:34:02;;;;;;;5.05;3.08;;;;;;;7.81;56.21;102922.94;5120526;28;20048;-61
2023/04/03 01:36:32;;;;;;;4.78;2.65;;;;;;;7.80;56.12;102931.97;5119137;28;20464;-60
2023/04/03 01:39:00;;;;;;;6.55;3.00;;;;;;;7.79;56.65;102936.47;5116499;28;20206;-60
2023/04/03 01:41:29;;;;;;;4.47;2.58;;;;;;;7.79;56.35;102933.81;5116346;28;20054;-60
2023/04/03 01:43:56;;;;;;;8.45;2.95;;;;;;;7.79;56.34;102930.28;5119957;28;20086;-60
2023/04/03 01:46:24;;;;;;;4.80;3.15;;;;;;;7.78;56.24;102929.44;5122661;28;20051;-60
2023/04/03 01:48:52;;;;;;;6.07;2.83;;;;;;;7.78;56.30;102931.28;5121580;28;20135;-60
2023/04/03 01:51:21;;;;;;;7.22;2.45;;;;;;;7.77;56.52;102927.75;5119363;28;20036;-61
2023/04/03 01:53:49;;;;;;;4.65;2.90;;;;;;;7.75;56.87;102935.09;5120535;28;20075;-60
2023/04/03 01:56:16;;;;;;;5.57;2.80;;;;;;;7.72;56.59;102935.41;5117707;28;20071;-59
2023/04/03 01:58:44;;;;;;;9.25;3.83;;;;;;;7.72;56.42;102926.53;5120985;28;20039;-60
2023/04/03 02:01:12;;;;;;;5.68;3.15;;;;;;;7.72;56.43;102927.38;5122887;28;20044;-60
2023/04/03 02:03:40;;;;;;;10.13;3.58;;;;;;;7.71;56.91;102925.69;5122448;28;20058;-60
2023/04/03 02:06:07;;;;;;;9.20;3.00;;;;;;;7.70;56.83;102931.19;5113004;28;20043;-59
2023/04/03 02:08:36;;;;;;;6.20;3.25;;;;;;;7.71;56.58;102935.56;5119007;28;20039;-60
2023/04/03 02:11:04;;;;;;;6.70;2.97;;;;;;;7.69;56.04;102925.00;5119966;28;20154;-60
2023/04/03 02:13:32;;;;;;;6.45;2.85;;;;;;;7.70;56.46;102928.53;5113196;28;20075;-60
2023/04/03 02:16:00;;;;;;;7.13;2.92;;;;;;;7.68;56.13;102934.03;5117612;28;20051;-60
2023/04/03 02:18:27;;;;;;;6.72;3.10;;;;;;;7.70;56.48;102931.19;5121427;28;20054;-61
2023/04/03 02:20:55;;;;;;;6.82;3.30;;;;;;;7.69;55.96;102937.53;5118244;28;20064;-60
2023/04/03 02:23:23;;;;;;;5.38;2.80;;;;;;;7.68;56.37;102930.50;5120568;28;20139;-61
2023/04/03 02:25:52;;;;;;;5.70;2.83;;;;;;;7.68;56.53;102938.53;5122034;28;20104;-61
2023/04/03 02:28:20;;;;;;;8.38;2.60;;;;;;;7.67;56.08;102940.38;5117511;28;20077;-60
2023/04/03 02:30:47;;;;;;;5.10;2.60;;;;;;;7.66;56.85;102936.00;5122602;28;20139;-61
2023/04/03 02:33:15;;;;;;;6.45;2.95;;;;;;;7.67;56.86;102940.38;5116217;28;20094;-60
2023/04/03 02:35:43;;;;;;;5.10;2.72;;;;;;;7.65;56.20;102933.50;5120838;28;20071;-59
2023/04/03 02:38:10;;;;;;;3.88;2.63;;;;;;;7.65;56.17;102938.84;5120540;28;20147;-60
2023/04/03 02:40:38;;;;;;;4.32;2.45;;;;;;;7.65;56.21;102944.19;5119784;28;20058;-61
2023/04/03 02:43:07;;;;;;;6.05;3.03;;;;;;;7.64;56.84;102945.19;5121454;28;20113;-61
2023/04/03 02:45:35;;;;;;;8.63;3.00;;;;;;;7.63;56.43;102943.50;5121482;28;20036;-60
2023/04/03 02:48:03;;;;;;;4.35;2.55;;;;;;;7.62;56.36;102948.00;5121657;28;20154;-60
2023/04/03 02:50:31;;;;;;;4.07;2.40;;;;;;;7.61;56.52;102949.00;5118833;28;20112;-61
2023/04/03 02:52:59;;;;;;;7.55;2.63;;;;;;;7.61;56.30;102954.34;5119404;28;20058;-60
2023/04/03 02:55:27;;;;;;;4.28;2.50;;;;;;;7.60;56.11;102946.47;5113404;28;20075;-60
2023/04/03 02:57:54;;;;;;;4.28;2.50;;;;;;;7.60;56.21;102954.50;5121499;28;20047;-60
2023/04/03 03:00:24;;;;;;;5.97;2.83;;;;;;;7.59;56.07;102958.16;5118782;28;20078;-59
2023/04/03 03:02:51;;;;;;;8.32;2.60;;;;;;;7.58;56.71;102960.00;5118905;28;20059;-59
2023/04/03 03:05:19;;;;;;;6.28;2.17;;;;;;;7.57;56.65;102954.81;5110956;28;20044;-60
2023/04/03 03:07:47;;;;;;;4.32;2.55;;;;;;;7.55;56.33;102954.97;5114739;28;20067;-60
2023/04/03 03:10:15;;;;;;;5.90;2.30;;;;;;;7.54;56.10;102950.59;5115717;28;20079;-60
2023/04/03 03:12:43;;;;;;;6.13;2.70;;;;;;;7.52;56.16;102957.94;5121974;28;20047;-60
2023/04/03 03:15:11;;;;;;;4.85;2.40;;;;;;;7.52;56.79;102952.59;5117991;28;20047;-60
2023/04/03 03:17:40;;;;;;;7.05;2.00;;;;;;;7.49;55.93;102945.69;5121173;28;20044;-60
2023/04/03 03:20:09;;;;;;;5.72;2.50;;;;;;;7.49;55.76;102951.06;5119450;28;20051;-60
2023/04/03 03:22:37;;;;;;;4.57;2.25;;;;;;;7.49;56.36;102952.88;5113216;28;20083;-60
2023/04/03 03:25:05;;;;;;;5.28;2.63;;;;;;;7.48;56.66;102949.38;5120074;28;20112;-60
2023/04/03 03:27:33;;;;;;;6.25;3.35;;;;;;;7.47;56.54;102950.34;5117019;28;20429;-60
2023/04/03 03:30:01;;;;;;;8.63;3.45;;;;;;;7.46;56.13;102950.50;5119290;28;20044;-60
2023/04/03 03:32:29;;;;;;;7.53;2.58;;;;;;;7.44;55.98;102947.13;5114399;28;20042;-59
2023/04/03 03:34:58;;;;;;;6.57;2.47;;;;;;;7.44;56.35;102955.16;5119163;28;20565;-60
2023/04/03 03:37:26;;;;;;;7.75;2.45;;;;;;;7.42;56.58;102958.00;5119447;28;20050;-60
2023/04/03 03:39:54;;;;;;;5.05;2.53;;;;;;;7.43;56.21;102961.50;5112280;28;20131;-60
2023/04/03 03:42:22;;;;;;;6.22;2.28;;;;;;;7.39;56.40;102968.97;5120827;28;20063;-59
2023/04/03 03:44:50;;;;;;;4.85;2.42;;;;;;;7.40;56.13;102972.50;5119999;28;20251;-59
2023/04/03 03:47:17;;;;;;;5.95;2.28;;;;;;;7.38;56.59;102963.78;5109902;28;20067;-59
2023/04/03 03:49:45;;;;;;;5.82;2.30;;;;;;;7.35;56.76;102956.06;5120037;28;20069;-60
2023/04/03 03:52:14;;;;;;;6.68;2.70;;;;;;;7.36;56.47;102969.28;5116679;28;20048;-60
2023/04/03 03:54:42;;;;;;;8.30;2.95;;;;;;;7.35;56.15;102978.28;5119612;28;20048;-60
2023/04/03 03:57:10;;;;;;;3.35;2.40;;;;;;;7.35;56.08;102974.78;5116282;28;20048;-60
2023/04/03 03:59:40;;;;;;;5.80;2.40;;;;;;;7.36;56.26;102984.50;5118521;28;20055;-61
2023/04/03 04:02:07;;;;;;;4.15;2.33;;;;;;;7.34;56.12;102979.28;5122542;28;20126;-60
2023/04/03 04:04:35;;;;;;;5.05;2.40;;;;;;;7.32;56.23;102977.75;5121195;28;20465;-61
2023/04/03 04:07:03;;;;;;;4.50;2.20;;;;;;;7.31;56.29;102974.22;5120461;28;20066;-60
2023/04/03 04:09:32;;;;;;;3.25;1.73;;;;;;;7.27;56.27;102977.34;5123716;28;20055;-60
2023/04/03 04:12:00;;;;;;;3.95;2.22;;;;;;;7.29;56.26;102978.88;5122745;28;20064;-60
2023/04/03 04:14:28;;;;;;;5.95;2.40;;;;;;;7.28;56.41;102982.56;5122250;28;20130;-60
2023/04/03 04:16:56;;;;;;;6.20;2.58;;;;;;;7.27;56.38;102972.00;5112107;28;20058;-60
2023/04/03 04:19:24;;;;;;;7.03;2.25;;;;;;;7.28;55.72;102976.38;5123232;28;20530;-60
2023/04/03 04:21:51;;;;;;;5.95;2.40;;;;;;;7.27;56.07;102980.03;5113537;28;20050;-60
2023/04/03 04:24:19;;;;;;;5.25;2.55;;;;;;;7.26;55.91;102978.34;5119180;28;20107;-60
2023/04/03 04:26:48;;;;;;;5.75;2.55;;;;;;;7.21;55.62;102976.13;5122979;28;20129;-60
2023/04/03 04:29:16;;;;;;;6.38;2.33;;;;;;;7.25;55.39;102973.97;5122686;28;20094;-60
2023/04/03 04:31:44;;;;;;;4.70;2.47;;;;;;;7.24;55.75;102977.66;5120273;28;20503;-60
2023/04/03 04:34:12;;;;;;;4.32;2.20;;;;;;;7.24;55.91;102975.81;5123488;28;20046;-60
2023/04/03 04:36:41;;;;;;;6.25;2.17;;;;;;;7.23;55.74;102981.31;5115615;28;20122;-60
2023/04/03 04:39:09;;;;;;;6.18;1.98;;;;;;;7.21;56.32;102972.59;5122769;28;20058;-60
2023/04/03 04:41:36;;;;;;;6.18;2.10;;;;;;;7.22;56.29;102979.63;5122879;28;20052;-60
2023/04/03 04:44:06;;;;;;;4.70;3.00;;;;;;;7.23;55.51;102979.47;5114399;28;20109;-60
2023/04/03 04:46:33;;;;;;;4.88;2.03;;;;;;;7.21;56.23;102978.78;5117409;28;20067;-61
2023/04/03 04:49:01;;;;;;;5.95;2.25;;;;;;;7.20;55.10;102990.47;5119347;28;20274;-60
2023/04/03 04:51:29;;;;;;;7.45;2.20;;;;;;;7.19;55.82;102983.44;5119630;28;20214;-60
2023/04/03 04:54:07;;;;;;;6.07;2.20;;;;;;;7.17;55.72;102996.97;5120742;28;20457;-60
2023/04/03 04:56:35;;;;;;;5.53;2.08;;;;;;;7.17;55.08;102994.28;5118668;28;20294;-60
2023/04/03 04:59:03;;;;;;;4.57;2.10;;;;;;;7.15;55.77;102993.59;5115549;28;20056;-60
2023/04/03 05:01:32;;;;;;;5.22;2.38;;;;;;;7.15;55.61;102998.94;5117734;28;20079;-60
2023/04/03 05:04:00;;;;;;;6.40;2.22;;;;;;;7.13;56.21;103002.75;5118126;28;20055;-60
2023/04/03 05:06:29;;;;;;;6.55;2.13;;;;;;;7.11;56.09;103002.88;5120054;28;20508;-61
2023/04/03 05:08:57;;;;;;;7.13;2.20;;;;;;;7.02;55.81;102993.06;5121066;28;20066;-60
2023/04/03 05:11:25;;;;;;;4.78;2.30;;;;;;;7.12;55.34;102999.22;5119064;28;20189;-60
2023/04/03 05:13:53;;;;;;;5.97;2.08;;;;;;;7.10;55.30;102998.53;5116611;28;20063;-60
2023/04/03 05:16:21;;;;;;;4.10;2.47;;;;;;;7.11;55.97;102996.69;5117757;28;20059;-60
2023/04/03 05:18:50;;;;;;;5.72;1.90;;;;;;;7.11;56.00;102999.38;5118025;28;20039;-60
2023/04/03 05:21:18;;;;;;;4.57;2.08;;;;;;;7.09;55.73;103009.38;5111235;28;20070;-59
2023/04/03 05:23:46;;;;;;;5.40;2.05;;;;;;;7.08;55.08;103013.03;5118261;28;20044;-60
2023/04/03 05:26:14;;;;;;;6.05;2.03;;;;;;;7.07;55.51;103020.22;5119428;28;20124;-60
2023/04/03 05:28:42;;;;;;;4.60;1.75;;;;;;;7.06;56.10;103018.53;5116855;28;20074;-63
2023/04/03 05:31:09;;;;;;;2.92;1.67;;;;;;;7.06;55.80;103021.19;5117348;28;20682;-60
2023/04/03 05:33:37;;;;;;;5.40;1.77;;;;;;;7.06;55.44;103020.34;5115938;28;20094;-61
2023/04/03 05:36:07;;;;;;;3.67;2.03;;;;;;;7.06;55.77;103023.88;5119720;28;20434;-62
2023/04/03 05:38:36;;;;;;;4.25;1.70;;;;;;;7.05;55.80;103029.38;5114625;28;20044;-64
2023/04/03 05:41:03;;;;;;;3.58;1.70;;;;;;;7.03;55.56;103034.00;5114400;28;20043;-62
2023/04/03 05:43:32;;;;;;;4.35;1.90;;;;;;;7.02;55.49;103026.97;5118286;28;20058;-63
2023/04/03 05:46:00;;;;;;;4.60;1.90;;;;;;;7.01;55.36;103031.47;4759401;28;10000031;-61
2023/04/03 05:48:27;;;;;;;4.97;1.70;;;;;;;7.00;55.62;103024.44;5116879;28;20047;-63
2023/04/03 05:50:55;;;;;;;4.68;1.50;;;;;;;7.00;55.34;103028.97;5112794;28;20130;-62
2023/04/03 05:53:29;;;;;;;4.25;1.80;;;;;;;7.01;55.78;103033.31;5113630;28;20071;-63
2023/04/03 05:55:57;;;;;;;8.15;1.73;;;;;;;6.98;55.58;103037.13;5110809;28;20432;-58
2023/04/03 05:58:25;;;;;;;5.07;1.98;;;;;;;6.97;55.79;103024.75;5115092;28;20048;-64
2023/04/03 06:00:52;;;;;;;3.97;1.70;;;;;;;6.95;55.12;103034.75;5113686;28;20202;-61
2023/04/03 06:03:20;;;;;;;5.47;1.90;;;;;;;6.94;55.27;103029.53;5111142;28;20113;-62
2023/04/03 06:05:48;;;;;;;4.75;1.42;;;;;;;6.92;55.30;103029.72;5114918;28;20056;-61
2023/04/03 06:08:16;;;;;;;6.00;1.80;;;;;;;6.92;55.82;103035.06;5074154;28;1101861;-60
2023/04/03 06:10:45;;;;;;;4.60;1.67;;;;;;;6.92;55.29;103027.03;5113995;28;20063;-61
2023/04/03 06:13:13;;;;;;;5.82;2.20;;;;;;;6.92;55.33;103040.41;5119082;28;20089;-60
2023/04/03 06:15:41;;;;;;;5.55;2.22;;;;;;;6.90;55.84;103042.38;5116802;28;20195;-61
2023/04/03 06:18:09;;;;;;;6.20;2.28;;;;;;;6.91;56.00;103046.75;5118963;28;20131;-61
2023/04/03 06:20:37;;;;;;;4.75;1.83;;;;;;;6.91;55.31;103037.88;5120015;28;20052;-61
2023/04/03 06:23:05;;;;;;;4.90;1.50;;;;;;;6.93;55.71;103041.25;5117928;28;20056;-61
2023/04/03 06:25:35;;;;;;;4.32;2.00;;;;;;;6.95;55.63;103041.91;5111915;28;20047;-61
2023/04/03 06:28:04;;;;;;;4.47;1.63;;;;;;;6.97;56.08;103046.13;5117164;28;20111;-62
2023/04/03 06:30:32;;;;;;;7.15;1.65;;;;;;;7.00;55.55;103047.66;5110513;28;20051;-61
2023/04/03 06:32:59;;;;;;;7.25;2.58;;;;;;;7.03;56.04;103045.56;5118654;28;20051;-62
2023/04/03 06:35:28;;;;;;;4.43;1.65;;;;;;;7.06;56.13;103055.97;5113228;28;20138;-61
2023/04/03 06:37:56;;;;;;;5.45;2.10;;;;;;;7.10;56.32;103053.84;5112538;28;20071;-61
2023/04/03 06:40:26;;;;;;;3.30;1.70;;;;;;;7.14;55.88;103055.22;5118611;28;20269;-61
2023/04/03 06:42:53;;;;;;;4.03;1.73;;;;;;;7.19;55.99;103055.63;5117396;28;20082;-61
2023/04/03 06:45:24;;;;;;;7.10;2.00;;;;;;;7.21;56.70;103064.38;5109928;28;20043;-60
2023/04/03 06:47:52;;;;;;;5.03;1.70;;;;;;;7.24;56.27;103053.38;5110804;28;20051;-61
2023/04/03 06:50:20;;;;;;;4.47;1.52;;;;;;;7.28;56.70;103052.09;5107733;28;20068;-61
2023/04/03 06:52:48;;;;;;;4.15;1.88;;;;;;;7.29;56.21;103061.81;5109060;28;20074;-61
2023/04/03 06:55:16;;;;;;;4.47;1.92;;;;;;;7.33;56.00;103063.19;5110291;28;20117;-61
2023/04/03 06:57:44;;;;;;;8.60;1.80;;;;;;;7.32;55.88;103064.19;5114390;28;20086;-61
2023/04/03 07:00:13;;;;;;;7.07;2.35;;;;;;;7.32;56.54;103071.38;5108100;28;20036;-62
2023/04/03 07:02:42;;;;;;;4.07;2.13;;;;;;;7.31;55.93;103070.53;5107222;28;20075;-61
2023/04/03 07:05:10;;;;;;;5.05;1.88;;;;;;;7.32;55.87;103068.69;5110215;28;20062;-62
2023/04/03 07:07:38;;;;;;;5.47;1.77;;;;;;;7.35;56.25;103076.44;5109448;28;20082;-62
2023/04/03 07:10:07;;;;;;;4.68;1.60;;;;;;;7.33;56.00;103073.06;5117106;28;20142;-62
2023/04/03 07:12:35;;;;;;;4.55;1.90;;;;;;;7.36;55.59;103070.09;5117565;28;20051;-62
2023/04/03 07:15:03;;;;;;;3.72;1.80;;;;;;;7.39;56.16;103078.66;5114452;28;20103;-62
2023/04/03 07:17:32;;;;;;;7.20;1.70;;;;;;;7.40;55.66;103079.50;5114855;28;20044;-62
2023/04/03 07:20:01;;;;;;;5.50;1.88;;;;;;;7.40;55.60;103071.47;5103973;28;20489;-62
2023/04/03 07:22:29;;;;;;;5.57;1.95;;;;;;;7.44;55.71;103070.19;5104991;28;20106;-61
2023/04/03 07:24:58;;;;;;;6.38;1.90;;;;;;;7.44;55.36;103078.22;5108111;28;20047;-61
2023/04/03 07:27:26;;;;;;;3.65;1.67;;;;;;;7.46;55.70;103079.75;5117762;28;20115;-61
2023/04/03 07:29:55;;;;;;;4.78;1.88;;;;;;;7.46;56.19;103085.13;5107102;28;20044;-61
2023/04/03 07:32:23;;;;;;;3.63;1.85;;;;;;;7.50;55.95;103085.66;5104261;28;20477;-61
2023/04/03 07:34:51;;;;;;;6.35;1.80;;;;;;;7.53;56.27;103092.56;5108069;28;20070;-61
2023/04/03 07:37:20;;;;;;;12.20;2.15;;;;;;;7.53;55.82;103079.19;5116904;28;20079;-61
2023/04/03 07:39:48;;;;;;;4.35;1.52;;;;;;;7.56;55.97;103092.25;5104657;28;20044;-60
2023/04/03 07:42:16;;;;;;;5.63;1.52;;;;;;;7.56;55.32;103090.44;5110899;28;20059;-60
2023/04/03 07:44:44;;;;;;;6.88;1.70;;;;;;;7.56;55.92;103085.06;5108939;28;20054;-60
2023/04/03 07:47:13;;;;;;;4.45;1.60;;;;;;;7.57;55.26;103094.78;5110127;28;20044;-60
2023/04/03 07:49:41;;;;;;;3.67;2.50;;;;;;;7.62;55.43;103092.53;5105661;28;20111;-63
2023/04/03 07:52:09;;;;;;;3.35;1.92;;;;;;;7.82;54.29;103099.47;5110644;28;20082;-61
2023/04/03 07:54:39;;;;;;;7.18;2.17;;;;;;;7.96;53.66;103095.44;5119145;28;20251;-62
2023/04/03 07:57:07;;;;;;;5.95;2.08;;;;;;;8.20;53.22;103086.00;5107365;28;20077;-61
2023/04/03 07:59:34;;;;;;;5.13;1.65;;;;;;;8.35;53.35;103096.09;5103138;28;20055;-61
2023/04/03 08:02:04;;;;;;;5.00;1.77;;;;;;;8.47;52.66;103105.59;5103017;28;20405;-61
2023/04/03 08:04:32;;;;;;;5.95;2.00;;;;;;;8.55;52.58;103095.94;5111818;28;20067;-61
2023/04/03 08:07:00;;;;;;;7.07;1.83;;;;;;;8.56;52.81;103095.78;5106952;28;20073;-61
2023/04/03 08:09:28;;;;;;;8.15;2.25;;;;;;;8.50;53.11;103095.56;5105320;28;20496;-60
2023/04/03 08:11:57;;;;;;;5.47;1.60;;;;;;;8.41;54.00;103095.47;5105048;28;20104;-62
2023/04/03 08:14:26;;;;;;;5.35;1.60;;;;;;;8.31;53.78;103101.88;5103293;28;20046;-62
2023/04/03 08:16:53;;;;;;;5.63;2.10;;;;;;;8.22;53.93;103097.41;5107255;28;20054;-62
2023/04/03 08:19:21;;;;;;;4.55;1.45;;;;;;;8.09;54.24;103095.09;5101439;28;20046;-61
2023/04/03 08:21:53;;;;;;;4.68;1.60;;;;;;;8.01;54.71;103101.19;5103387;28;20048;-61
2023/04/03 08:24:21;;;;;;;4.93;1.83;;;;;;;7.95;54.90;103098.28;5105637;28;20052;-61
2023/04/03 08:26:49;;;;;;;10.10;2.05;;;;;;;7.88;55.29;103094.50;5103936;28;20601;-61
2023/04/03 08:29:18;;;;;;;3.53;1.40;;;;;;;7.79;55.17;103093.56;5103267;28;20123;-61
2023/04/03 08:31:46;;;;;;;4.47;1.88;;;;;;;7.73;55.24;103107.53;5101561;28;20044;-61
2023/04/03 08:34:14;;;;;;;4.22;1.60;;;;;;;7.67;55.06;103105.47;5113175;28;20040;-61
2023/04/03 08:36:42;;;;;;;4.28;1.90;;;;;;;7.67;55.11;103103.63;5118338;28;20112;-61
2023/04/03 08:39:10;;;;;;;5.53;1.73;;;;;;;7.72;55.07;103100.50;5108806;28;20051;-61
2023/04/03 08:41:42;;;;;;;4.47;1.52;;;;;;;7.75;54.16;103109.09;5105661;28;20044;-61
2023/04/03 08:44:23;;;;;;;5.03;1.55;;;;;;;7.79;54.66;103110.47;5110526;28;20106;-61
2023/04/03 08:47:18;;;;;;;4.43;1.40;;;;;;;7.86;54.15;103117.91;5104475;28;20040;-61
2023/04/03 08:49:51;;;;;;;4.72;1.30;;;;;;;8.07;54.51;103113.16;5117740;28;20051;-61
2023/04/03 08:52:23;;;;;;;3.60;1.52;;;;;;;8.27;53.68;103109.34;5120895;28;20069;-61
2023/04/03 08:54:54;;;;;;;6.57;1.88;;;;;;;8.52;53.00;103109.66;5123348;28;20044;-61
2023/04/03 08:57:30;;;;;;;4.68;2.08;;;;;;;8.62;53.08;103110.41;5123483;28;20054;-61
2023/04/03 09:00:16;;;;;;;4.03;1.25;;;;;;;8.66;52.57;103106.44;5110159;28;20047;-61
2023/04/03 09:02:47;;;;;;;4.53;1.77;;;;;;;8.63;52.95;103114.78;5111510;28;20072;-61
2023/04/03 09:05:17;;;;;;;5.35;2.13;;;;;;;8.60;53.71;103109.72;5121313;28;20047;-61
2023/04/03 09:07:48;;;;;;;4.53;1.35;;;;;;;8.58;53.68;103107.19;5113910;28;20071;-61
2023/04/03 09:10:24;;;;;;;4.03;1.40;;;;;;;8.53;53.58;103114.00;5122157;28;20047;-61
2023/04/03 09:13:01;;;;;;;3.85;1.42;;;;;;;8.47;53.73;103115.47;5114778;28;20053;-61
2023/04/03 09:15:30;;;;;;;;;;;;;;;8.43;53.62;103116.75;5122100;28;20054;-61
2023/04/03 09:18:13;;;;;;;4.72;1.30;;;;;;;8.38;54.64;103117.22;5118781;28;20015;-61
2023/04/03 09:20:47;;;;;;;4.10;1.38;;;;;;;8.39;54.28;103110.84;5123454;28;20040;-61
2023/04/03 09:23:21;;;;;;;3.30;1.25;;;;;;;8.32;54.08;103115.09;5120910;28;20159;-61
2023/04/03 09:25:50;;;;;;;4.07;1.40;;;;;;;8.26;53.61;103113.03;5123435;28;20087;-61
2023/04/03 09:28:18;;;;;;;3.30;1.35;;;;;;;8.18;53.42;103112.94;5118934;28;20131;-61
2023/04/03 09:30:47;;;;;;;2.42;1.20;;;;;;;8.13;53.54;103109.88;5122639;28;20120;-61
2023/04/03 09:33:16;;;;;;;2.85;0.95;;;;;;;8.12;53.54;103113.53;5117432;28;20075;-61
2023/04/03 09:35:44;;;;;;;2.72;1.08;;;;;;;8.14;54.37;103116.91;5121755;28;20082;-61
2023/04/03 09:38:21;;;;;;;2.88;1.30;;;;;;;8.13;53.67;103124.09;5119179;28;20048;-62
2023/04/03 09:40:52;;;;;;;3.17;1.13;;;;;;;8.12;54.35;103113.53;5123804;28;20093;-61
2023/04/03 09:43:26;;;;;;;3.58;1.23;;;;;;;8.12;53.54;103113.53;5109196;28;20059;-61
2023/04/03 09:45:57;;;;;;;1.65;0.90;;;;;;;8.12;54.09;103116.22;5119693;28;20263;-61
2023/04/03 09:48:27;;;;;;;3.75;1.20;;;;;;;8.14;54.05;103117.75;5109550;28;20053;-61
2023/04/03 09:51:01;;;;;;;2.60;0.90;;;;;;;8.14;53.39;103116.91;5113270;28;20521;-61
2023/04/03 09:53:35;;;;;;;3.40;1.35;;;;;;;8.11;53.79;103103.81;5119701;28;20112;-61
2023/04/03 09:56:05;;;;;;;2.33;1.00;;;;;;;8.15;54.04;103106.06;5121503;28;20263;-61
2023/04/03 09:58:38;;;;;;;4.72;1.50;;;;;;;8.13;53.26;103097.31;5120320;28;20055;-58
2023/04/03 10:01:29;;;;;;;3.83;1.10;;;;;;;8.09;52.22;103103.13;5121675;28;20043;-60
2023/04/03 10:04:06;;;;;;;2.47;1.23;;;;;;;8.06;52.12;103090.88;5116984;28;20477;-60
2023/04/03 10:06:37;;;;;;;2.17;0.95;;;;;;;8.10;51.18;103099.47;5122093;28;20048;-59
2023/04/03 10:09:07;;;;;;;6.18;1.33;;;;;;;8.10;52.50;103081.56;5114858;28;20075;-60
2023/04/03 10:11:35;;;;;;;2.75;1.20;;;;;;;8.11;50.94;103087.75;5118677;28;20098;-60
2023/04/03 10:14:05;;;;;;;2.17;1.25;;;;;;;8.15;50.46;103086.47;5105079;28;20059;-61
2023/04/03 10:16:43;;;;;;;3.42;1.30;;;;;;;8.18;50.31;103088.00;5119377;28;20047;-60
2023/04/03 10:19:31;;;;;;;3.50;1.05;;;;;;;8.17;49.83;103087.16;5108567;28;20048;-60
2023/04/03 10:22:01;;;;;;;4.00;1.73;;;;;;;8.22;50.08;103082.19;5117413;28;20146;-61
2023/04/03 10:24:37;;;;;;;1.95;0.90;;;;;;;8.27;50.42;103079.88;5116785;28;20047;-60
2023/04/03 10:27:11;;;;;;;2.97;0.98;;;;;;;8.37;50.24;103077.19;5121064;28;20054;-61
2023/04/03 10:29:53;;;;;;;4.95;1.02;;;;;;;8.56;48.75;103070.81;5120325;28;20423;-61
2023/04/03 10:32:36;;;;;;;5.60;1.00;;;;;;;8.73;47.19;103073.44;5121132;28;20083;-60
2023/04/03 10:35:16;;;;;;;1.80;1.15;;;;;;;8.98;45.28;103069.13;5108478;28;20580;-61
2023/04/03 10:37:56;;;;;;;2.10;0.93;;;;;;;9.25;45.24;103064.59;5104998;28;20141;-61
2023/04/03 10:40:32;;;;;;;3.53;0.80;;;;;;;9.48;44.91;103065.72;5116475;28;20058;-61
2023/04/03 10:43:08;;;;;;;1.70;0.90;;;;;;;9.80;44.30;103056.97;5120276;28;20040;-61
2023/04/03 10:45:51;;;;;;;1.35;0.70;;;;;;;9.90;43.25;103033.50;5111050;28;20043;-61
2023/04/03 10:48:34;;;;;;;2.47;1.00;;;;;;;9.90;44.73;103040.72;5120744;28;20058;-61
2023/04/03 10:51:12;;;;;;;1.55;0.70;;;;;;;9.76;41.98;103032.28;5116429;28;20059;-61
2023/04/03 10:53:51;;;;;;;3.13;1.00;;;;;;;9.70;44.50;103045.53;5120336;28;20043;-61
2023/04/03 10:56:25;;;;;;;1.60;0.82;;;;;;;9.66;45.21;103041.47;5118816;28;20058;-61
2023/04/03 10:58:57;;;;;;;2.95;0.95;;;;;;;9.59;46.44;103040.44;5117635;28;20416;-61
2023/04/03 11:01:29;;;;;;;2.42;0.95;;;;;;;9.54;46.67;103032.88;5107638;28;20082;-60
2023/04/03 11:04:01;;;;;;;3.60;1.00;;;;;;;9.45;45.53;103029.31;5120315;28;20346;-61
2023/04/03 11:06:36;;;;;;;0.68;0.57;;;;;;;9.55;46.84;103037.25;5117966;28;20097;-61
2023/04/03 11:09:12;;;;;;;1.88;0.93;;;;;;;9.51;47.00;103025.16;5116966;28;20178;-61
2023/04/03 11:11:43;;;;;;;2.22;0.93;;;;;;;9.46;47.12;103027.47;5120572;28;20038;-62
2023/04/03 11:14:18;;;;;;;6.15;1.27;;;;;;;9.42;44.89;103020.75;5110805;28;20070;-59
2023/04/03 11:16:49;;;;;;;1.85;0.82;;;;;;;9.39;45.08;103024.59;5115634;28;20047;-61
2023/04/03 11:19:33;;;;;;;1.27;0.70;;;;;;;9.35;44.50;103019.72;5111448;28;20059;-61
2023/04/03 11:22:09;;;;;;;4.45;0.90;;;;;;;9.31;43.72;103027.22;5107868;28;20036;-60
2023/04/03 11:24:42;;;;;;;6.13;0.82;;;;;;;9.19;43.74;103006.22;5114589;28;20148;-60
2023/04/03 11:27:16;;;;;;;2.65;1.13;;;;;;;9.31;45.55;103029.06;5120362;28;20047;-60
2023/04/03 11:29:47;;;;;;;2.58;0.80;;;;;;;9.33;46.13;103021.72;5119821;28;20071;-61
2023/04/03 11:32:41;;;;;;;2.17;0.90;;;;;;;9.38;47.00;103022.06;5112236;28;20075;-62
2023/04/03 11:35:13;;;;;;;1.40;1.00;;;;;;;9.38;47.20;103011.34;5116302;28;20062;-61
2023/04/03 11:37:45;;;;;;;2.50;1.02;;;;;;;9.35;44.50;103017.03;5117406;28;20071;-61
2023/04/03 11:40:23;;;;;;;2.53;0.70;;;;;;;9.37;46.26;103005.13;5115912;28;20126;-61
2023/04/03 11:42:54;;;;;;;2.13;0.90;;;;;;;9.38;46.84;103004.13;5120394;28;20061;-62
2023/04/03 11:45:34;;;;;;;3.17;0.77;;;;;;;9.41;46.25;102994.91;5110386;28;20051;-61
2023/04/03 11:48:04;;;;;;;4.03;0.95;;;;;;;9.40;44.32;102998.59;5107966;28;20355;-62